Latest Coastal Weather Observations for Laverton

IDV60701

Issued at 3:01 pm EST Wednesday 1 July 2015 (issued every 10 minutes, with the page automatically refreshed every 10 minutes)

About coastal observations | Map of coastal stations | Coastal observations for VIC | Marine services | Other Formats
Station Details ID: 087031 Name: LAVERTON RAAF Lat: -37.86 Lon: 144.76 Height: 20.1 m
Data from the previous 72 hours. | See also: Recent months at Laverton
Date/Time
EST
Temp

°C
Wind Pressure Rain
since 9am
mm
Weather Cloud Vis
km
Sea
Height
m
Swell
Dir
 
Speed
knots
Gust
knots
hPa Trend Height
m
Period
s
Dir
01/03:00pm 14.3 NW 14 19 1023.2 - 0.0 - Cloudy 10 - - - -
01/02:30pm 13.7 NW 12 17 1023.7 - 0.0 - Cloudy 10 - - - -
01/02:00pm 13.7 NW 15 21 1024.1 - 0.0 - Cloudy 10 - - - -
01/01:30pm 13.9 NW 15 21 1024.2 - 0.0 - Partly cloudy 10 - - - -
01/01:00pm 14.9 NW 15 19 1024.8 - 0.0 - Partly cloudy 10 - - - -
01/12:30pm 14.2 NW 15 20 1025.2 - 0.0 - Partly cloudy 10 - - - -
01/12:00pm 14.1 NW 13 17 1025.7 - 0.0 - Mostly clear 10 - - - -
01/11:30am 13.5 NNW 12 16 1026.4 - 0.0 - Cloudy 10 - - - -
01/11:00am 13.2 NNW 12 15 1027.1 - 0.0 - Cloudy 10 - - - -
01/10:30am 12.1 NNW 11 15 1027.5 - 0.0 - Cloudy 10 - - - -
01/10:00am 11.4 NNW 8 11 1027.9 - 0.0 - Cloudy 10 - - - -
01/09:30am 11.0 NW 7 10 1028.2 - 0.0 - Cloudy 10 - - - -
01/09:00am 10.4 NW 9 12 1028.1 - 0.0 - Cloudy 10 - - - -
01/08:30am 9.7 NW 7 9 1028.0 - 0.0 - Cloudy 10 - - - -
01/08:00am 10.2 WNW 8 11 1028.0 - 0.0 - Cloudy 10 - - - -
01/07:30am 9.6 W 8 10 1027.9 - 0.0 - Cloudy 10 - - - -
01/07:00am 8.4 WNW 5 7 1027.5 - 0.0 - Cloudy 10 - - - -
01/06:30am 8.7 NW 4 4 1027.4 - 0.0 - Cloudy 10 - - - -
01/06:00am 8.8 NW 4 5 1027.3 - 0.0 - Cloudy 10 - - - -
01/05:30am 8.7 NW 4 5 1027.2 - 0.0 - Cloudy 10 - - - -
01/05:00am 8.7 NW 4 5 1027.4 - 0.0 - Cloudy 10 - - - -
01/04:30am 8.7 NW 4 5 1027.6 - 0.0 - Cloudy 10 - - - -
01/04:00am 8.7 NW 4 5 1027.4 - 0.0 - Cloudy 10 - - - -
01/03:30am 8.8 NW 4 5 1027.4 - 0.0 - Cloudy 10 - - - -
01/03:00am 9.0 WNW 5 6 1027.6 - 0.0 - Mostly cloudy 10 - - - -
01/02:30am 9.1 NW 5 6 1027.8 - 0.0 - Partly cloudy 10 - - - -
01/02:00am 9.2 NW 5 6 1027.9 - 0.0 - Partly cloudy 10 - - - -
01/01:30am 9.6 WNW 7 8 1028.2 - 0.0 - Partly cloudy 10 - - - -
01/01:00am 9.3 WNW 6 9 1028.3 - 0.0 - Partly cloudy 10 - - - -
01/12:30am 8.9 NW 6 7 1028.4 - 0.0 - Partly cloudy 10 - - - -
01/12:00am 9.0 NW 4 5 1028.5 - 0.0 - Cloudy 10 - - - -
 
Date/Time
EST
Temp

°C
Wind Pressure Rain
since 9am
mm
Weather Cloud Vis
km
Sea
Height
m
Swell
Dir
 
Speed
knots
Gust
knots
hPa Trend Height
m
Period
s
Dir
30/11:30pm 9.4 WNW 5 6 1028.6 - 0.0 - Partly cloudy 10 - - - -
30/11:00pm 9.5 NW 5 5 1028.7 - 0.0 - Cloudy 10 - - - -
30/10:30pm 10.1 WNW 4 6 1028.8 - 0.0 - Partly cloudy 10 - - - -
30/10:00pm 9.6 WNW 5 5 1028.7 - 0.0 - Cloudy 10 - - - -
30/09:30pm 10.4 WNW 5 6 1028.6 - 0.0 - Partly cloudy 10 - - - -
30/09:00pm 11.0 W 5 6 1028.6 - 0.0 - Cloudy 10 - - - -
30/08:30pm 11.3 W 6 8 1028.5 - 0.0 - Cloudy 10 - - - -
30/08:00pm 11.5 WSW 5 8 1028.4 - 0.0 - Cloudy 10 - - - -
30/07:30pm 11.8 SW 6 8 1028.3 - 0.0 - Partly cloudy 10 - - - -
30/07:00pm 12.1 W 5 7 1028.0 - 0.0 - Cloudy 10 - - - -
30/06:30pm 11.9 CALM 0 0 1028.0 - 0.0 - Partly cloudy 10 - - - -
30/06:00pm 12.3 WSW 4 7 1027.8 - 0.0 - Cloudy 10 - - - -
30/05:30pm 11.9 NW 5 6 1027.6 - 0.0 - Partly cloudy 10 - - - -
30/05:00pm 12.3 NW 6 7 1027.5 - 0.0 - Cloudy 10 - - - -
30/04:30pm 12.7 NNW 4 5 1027.2 - 0.0 - Cloudy 10 - - - -
30/04:00pm 13.0 NW 5 8 1027.2 - 0.0 - Cloudy 10 - - - -
30/03:30pm 13.1 WNW 4 5 1027.1 - 0.0 - Cloudy 10 - - - -
30/03:00pm 13.0 W 4 7 1027.2 - 0.0 - Cloudy 10 - - - -
30/02:30pm 13.0 WSW 4 7 1027.1 - 0.0 - Cloudy 10 - - - -
30/02:00pm 13.3 WNW 4 6 1027.2 - 0.0 - Cloudy 10 - - - -
30/01:30pm 12.8 WSW 5 8 1027.3 - 0.0 - Partly cloudy 10 - - - -
30/01:00pm 12.3 WNW 5 7 1027.7 - 0.0 - Partly cloudy 10 - - - -
30/12:30pm 12.3 WNW 5 8 1028.1 - 0.0 - Cloudy 10 - - - -
30/12:00pm 12.1 NW 7 9 1028.5 - 0.0 - Mostly cloudy 10 - - - -
30/11:30am 11.7 WNW 5 7 1028.9 - 0.0 - Partly cloudy 10 - - - -
30/11:00am 11.4 WNW 6 8 1029.3 - 0.0 - Cloudy 10 - - - -
30/10:30am 11.3 WNW 7 8 1029.6 - 0.0 - Partly cloudy 10 - - - -
30/10:00am 10.2 NW 8 10 1029.6 - 0.0 - Partly cloudy 10 - - - -
30/09:30am 9.3 NW 6 9 1029.6 - 0.0 - - 10 - - - -
30/09:00am 7.2 NW 4 6 1029.5 - 0.0 - - 10 - - - -
30/08:30am 5.3 NNW 6 7 1029.2 - 0.0 - - 10 - - - -
30/08:00am 4.2 NNW 2 4 1029.0 - 0.0 - Partly cloudy 8 - - - -
30/07:30am 4.4 NNW 3 4 1029.0 - 0.0 - Partly cloudy 10 - - - -
30/07:00am 5.0 NNW 5 5 1028.9 - 0.0 - Partly cloudy 10 - - - -
30/06:30am 5.1 NNW 5 7 1028.8 - 0.0 - - 10 - - - -
30/06:00am 6.5 N 5 6 1028.8 - 0.0 - Mostly clear 10 - - - -
30/05:30am 6.9 N 3 4 1028.5 - 0.0 - Cloudy 10 - - - -
30/05:00am 6.4 CALM 0 0 1028.5 - 0.0 - Cloudy 10 - - - -
30/04:30am 6.5 NNW 5 6 1028.6 - 0.0 - Cloudy 10 - - - -
30/04:00am 5.6 NNW 3 5 1028.7 - 0.0 - Partly cloudy 10 - - - -
30/03:30am 6.1 N 6 7 1028.7 - 0.0 - Partly cloudy 10 - - - -
30/03:00am 5.3 WSW 5 6 1028.7 - 0.0 - Mostly cloudy 10 - - - -
30/02:30am 4.5 WSW 5 6 1028.6 - 0.0 - Cloudy 10 - - - -
30/02:00am 4.2 WSW 4 4 1028.8 - 0.0 - Cloudy 10 - - - -
30/01:30am 4.7 WSW 4 5 1029.0 - 0.0 - Partly cloudy 10 - - - -
30/01:13am 4.5 WSW 4 5 1029.2 - 0.0 - Partly cloudy 9 - - - -
30/01:00am 4.0 WSW 4 5 1029.3 - 0.0 - Partly cloudy 7 - - - -
30/12:43am 5.0 WSW 4 5 1029.4 - 0.0 - Partly cloudy 7 - - - -
30/12:30am 5.6 WSW 3 4 1029.6 - 0.0 - Partly cloudy 8 - - - -
30/12:00am 6.5 WSW 4 5 1029.9 - 0.0 - Mostly cloudy 8 - - - -
 
Date/Time
EST
Temp

°C
Wind Pressure Rain
since 9am
mm
Weather Cloud Vis
km
Sea
Height
m
Swell
Dir
 
Speed
knots
Gust
knots
hPa Trend Height
m
Period
s
Dir
29/11:30pm 6.7 WSW 3 4 1030.0 - 0.0 - Cloudy 10 - - - -
29/11:00pm 7.0 WSW 3 3 1030.1 - 0.0 - Partly cloudy 10 - - - -
29/10:30pm 7.0 WSW 3 3 1030.0 - 0.0 - Partly cloudy 10 - - - -
29/10:00pm 8.0 WSW 4 5 1030.2 - 0.0 - Partly cloudy 10 - - - -
29/09:30pm 8.7 WSW 4 5 1030.4 - 0.0 - Partly cloudy 10 - - - -
29/09:00pm 8.5 SE 4 5 1030.6 - 0.0 - Cloudy 10 - - - -
29/08:30pm 8.9 SE 3 4 1030.8 - 0.0 - Cloudy 10 - - - -
29/08:00pm 8.8 CALM 0 0 1030.9 - 0.0 - Cloudy 10 - - - -
29/07:30pm 8.8 SE 3 4 1031.0 - 0.0 - Cloudy 10 - - - -
29/07:00pm 8.4 SE 4 5 1031.1 - 0.0 - Cloudy 10 - - - -
29/06:30pm 8.6 SE 4 5 1031.0 - 0.0 - Partly cloudy 10 - - - -
29/06:00pm 9.0 CALM 0 0 1031.1 - 0.0 - Partly cloudy 10 - - - -
29/05:30pm 10.0 CALM 0 2 1031.0 - 0.0 - Partly cloudy 10 - - - -
29/05:00pm 10.5 SW 3 4 1030.9 - 0.0 - Partly cloudy 10 - - - -
29/04:30pm 11.0 SSW 7 9 1031.2 - 0.0 - Cloudy 10 - - - -
29/04:00pm 11.2 SE 4 6 1031.0 - 0.0 - Cloudy 10 - - - -
29/03:30pm 11.6 SE 5 7 1031.2 - 0.0 - Cloudy 10 - - - -
29/03:00pm 11.6 SE 4 6 1031.2 - 0.0 - Cloudy 10 - - - -
29/02:30pm 12.1 CALM 0 3 1031.4 - 0.0 - Cloudy 10 - - - -
29/02:00pm 11.7 SSE 4 5 1031.7 - 0.0 - Cloudy 10 - - - -
29/01:30pm 11.8 SSW 4 6 1031.9 - 0.0 - Cloudy 10 - - - -
29/01:00pm 11.6 SE 4 7 1032.2 - 0.0 - Cloudy 10 - - - -
29/12:30pm 11.6 WNW 4 6 1032.6 - 0.0 - Cloudy 10 - - - -
29/12:00pm 11.3 SSE 4 6 1032.8 - 0.0 - Cloudy 10 - - - -
29/11:30am 11.2 WNW 3 6 1033.2 - 0.0 - Cloudy 10 - - - -
29/11:00am 11.0 W 2 5 1033.6 - 0.0 - Cloudy 10 - - - -
29/10:30am 10.9 WSW 5 8 1033.9 - 0.0 - Cloudy 10 - - - -
29/10:00am 10.8 WSW 4 8 1033.9 - 0.0 - Cloudy 10 - - - -
29/09:30am 10.2 W 4 5 1033.8 - 0.0 - Cloudy 10 - - - -
29/09:00am 9.5 WNW 4 6 1033.8 - 0.0 - Cloudy 10 - - - -
29/08:30am 8.9 WNW 3 3 1033.7 - 0.0 - Cloudy 10 - - - -
29/08:00am 8.4 WNW 3 4 1033.5 - 0.0 - Cloudy 10 - - - -
29/07:30am 8.3 WNW 4 5 1033.5 - 0.0 - Cloudy 10 - - - -
29/07:00am 8.3 NW 3 4 1033.3 - 0.0 - Cloudy 10 - - - -
29/06:30am 8.1 NW 4 5 1033.2 - 0.0 - Cloudy 10 - - - -
29/06:00am 8.0 NW 5 5 1033.1 - 0.0 - Cloudy 10 - - - -
29/05:30am 7.9 NW 5 6 1032.9 - 0.0 - Cloudy 10 - - - -
29/05:00am 7.8 WNW 6 7 1032.9 - 0.0 - Cloudy 10 - - - -
29/04:30am 7.7 NW 6 7 1033.1 - 0.0 - Cloudy 10 - - - -
29/04:00am 7.5 WNW 6 8 1033.2 - 0.0 - Cloudy 10 - - - -
29/03:30am 6.9 NW 6 7 1033.2 - 0.0 - Cloudy 10 - - - -
29/03:00am 6.8 NW 5 7 1033.3 - 0.0 - Cloudy 10 - - - -
29/02:30am 6.6 NW 6 8 1033.2 - 0.0 - Cloudy 10 - - - -
29/02:00am 5.4 NW 7 8 1033.3 - 0.0 - Partly cloudy 10 - - - -
29/01:30am 4.5 NW 7 7 1033.2 - 0.0 - - 10 - - - -
29/01:00am 5.0 NW 7 9 1033.2 - 0.0 - Partly cloudy 10 - - - -
29/12:30am 5.2 NW 6 7 1033.2 - 0.0 - Partly cloudy 10 - - - -
29/12:00am 5.8 WSW 7 7 1033.4 - 0.0 - - 10 - - - -
 
Date/Time
EST
Temp

°C
Wind Pressure Rain
since 9am
mm
Weather Cloud Vis
km
Sea
Height
m
Swell
Dir
 
Speed
knots
Gust
knots
hPa Trend Height
m
Period
s
Dir
28/11:30pm 6.4 WSW 5 6 1033.5 - 0.0 - - 10 - - - -
28/11:00pm 8.0 WSW 4 5 1033.7 - 0.0 - - 10 - - - -
28/10:30pm 9.4 WSW 4 5 1034.0 - 0.0 - - 10 - - - -
28/10:00pm 10.1 SW 5 6 1034.2 - 0.0 - Cloudy 10 - - - -
28/09:30pm 10.6 SW 6 8 1034.2 - 0.0 - Cloudy 10 - - - -
28/09:00pm 10.9 SSW 5 8 1034.2 - 0.0 - Mostly cloudy 10 - - - -
28/08:30pm 11.2 SW 5 6 1034.3 - 0.0 - Cloudy 10 - - - -
28/08:00pm 11.5 SW 5 6 1034.2 - 0.0 - Cloudy 10 - - - -
28/07:30pm 11.7 SSW 5 6 1034.1 - 0.0 - Cloudy 10 - - - -
28/07:00pm 11.6 SSW 5 6 1033.8 - 0.0 - Cloudy 10 - - - -
28/06:30pm 12.4 W 5 7 1033.5 - 0.0 - Partly cloudy 10 - - - -
28/06:00pm 12.4 W 6 9 1033.2 - 0.0 - Mostly clear 10 - - - -
28/05:30pm 12.2 WSW 5 8 1033.0 - 0.0 - Partly cloudy 10 - - - -
28/05:00pm 13.2 WSW 5 7 1033.1 - 0.0 - Cloudy 10 - - - -
28/04:30pm 13.5 SW 6 8 1033.1 - 0.0 - Cloudy 10 - - - -
28/04:00pm 13.5 SSW 7 10 1033.0 - 0.0 - Partly cloudy 10 - - - -
28/03:30pm 13.8 SSW 4 7 1032.7 - 0.0 - Partly cloudy 10 - - - -

Other Formats:

Comma delimited format used in spreadsheet applications
http://www.bom.gov.au/fwo/IDV60701/IDV60701.94865.axf

JavaScript Object Notation format (JSON) in row-major order
http://www.bom.gov.au/fwo/IDV60701/IDV60701.94865.json